Time;durP1;ratioP1;P1;durP2;ratioP2;P2;SDS_P1;SDS_P2;PMS_P1;PMS_P2;Temp;Humidity;BMP_temperature;BMP_pressure;BME280_temperature;BME280_humidity;BME280_pressure;Samples;Min_cycle;Max_cycle;Signal;HPM_P1;HPM_P2
2023/12/31 00:01:44;;;;;;;8.93;7.97;;;6.10;76.10;;;;;;6296574;28;20229;-80
2023/12/31 00:04:47;;;;;;;8.23;7.40;;;6.00;76.10;;;;;;6296057;28;20237;-80
2023/12/31 00:07:51;;;;;;;14.60;11.00;;;6.00;76.20;;;;;;6301381;28;20229;-78
2023/12/31 00:10:55;;;;;;;18.40;12.40;;;6.00;76.50;;;;;;6288809;28;20784;-80
2023/12/31 00:13:58;;;;;;;12.60;11.07;;;6.00;76.50;;;;;;6303808;28;20248;-80
2023/12/31 00:17:01;;;;;;;18.37;13.13;;;6.00;76.50;;;;;;6304280;28;20236;-81
2023/12/31 00:20:05;;;;;;;18.70;11.83;;;6.00;76.60;;;;;;6310950;28;20278;-80
2023/12/31 00:23:11;;;;;;;16.23;12.03;;;6.10;76.50;;;;;;6293775;28;20227;-80
2023/12/31 00:26:15;;;;;;;16.33;11.87;;;6.10;76.30;;;;;;6297066;28;20229;-81
2023/12/31 00:29:18;;;;;;;18.00;12.73;;;6.10;76.40;;;;;;6285087;28;20225;-81
2023/12/31 00:32:21;;;;;;;22.77;13.97;;;6.10;76.40;;;;;;6295091;28;20324;-81
2023/12/31 00:35:24;;;;;;;22.37;12.43;;;6.10;76.50;;;;;;6298072;28;20233;-81
2023/12/31 00:38:29;;;;;;;22.13;15.20;;;6.10;76.50;;;;;;6293477;28;20244;-81
2023/12/31 00:41:33;;;;;;;13.60;10.90;;;6.10;76.50;;;;;;6293734;28;20701;-80
2023/12/31 00:44:36;;;;;;;19.80;13.27;;;6.10;76.70;;;;;;6310696;28;20256;-80
2023/12/31 00:47:39;;;;;;;27.50;14.23;;;6.10;76.70;;;;;;6309565;28;20294;-80
2023/12/31 00:50:42;;;;;;;21.20;13.00;;;6.10;76.60;;;;;;6293228;28;20326;-79
2023/12/31 00:53:49;;;;;;;18.20;11.30;;;6.10;76.40;;;;;;6301440;28;20313;-81
2023/12/31 00:56:52;;;;;;;14.47;9.40;;;6.20;76.40;;;;;;6290094;28;20225;-79
2023/12/31 00:59:56;;;;;;;19.40;11.27;;;6.20;76.20;;;;;;6296874;28;20323;-80
2023/12/31 01:02:59;;;;;;;10.70;9.70;;;6.20;76.20;;;;;;6293368;28;20234;-79
2023/12/31 01:06:06;;;;;;;10.20;9.13;;;6.10;76.20;;;;;;6313241;28;20869;-81
2023/12/31 01:09:10;;;;;;;14.30;11.10;;;6.10;76.30;;;;;;6303244;28;20225;-80
2023/12/31 01:12:14;;;;;;;10.90;9.33;;;6.00;76.50;;;;;;6302945;28;20232;-79
2023/12/31 01:15:17;;;;;;;10.93;8.43;;;5.90;76.70;;;;;;6301519;28;20226;-80
2023/12/31 01:18:21;;;;;;;8.23;7.60;;;5.80;76.70;;;;;;6300177;28;20233;-81
2023/12/31 01:21:24;;;;;;;9.07;8.10;;;5.80;76.90;;;;;;6300918;28;20237;-80
2023/12/31 01:24:30;;;;;;;8.60;7.70;;;5.70;76.90;;;;;;6311924;28;20253;-81
2023/12/31 01:27:35;;;;;;;7.93;7.13;;;5.60;77.10;;;;;;6300122;28;20241;-79
2023/12/31 01:30:38;;;;;;;7.63;7.00;;;5.60;77.10;;;;;;6292624;28;20320;-82
2023/12/31 01:33:42;;;;;;;8.00;7.20;;;5.50;77.10;;;;;;6317739;28;20758;-81
2023/12/31 01:36:45;;;;;;;9.73;7.90;;;5.50;77.20;;;;;;6300820;28;20836;-82
2023/12/31 01:39:49;;;;;;;8.10;7.40;;;5.50;77.50;;;;;;6296636;28;20279;-80
2023/12/31 01:42:52;;;;;;;8.63;7.67;;;5.40;77.50;;;;;;6305353;28;20231;-79
2023/12/31 01:45:56;;;;;;;8.90;7.00;;;5.30;77.60;;;;;;6292779;28;20229;-80
2023/12/31 01:49:00;;;;;;;8.57;7.63;;;5.30;77.80;;;;;;6306276;28;20240;-79
2023/12/31 01:52:04;;;;;;;7.70;7.10;;;5.20;77.90;;;;;;6311175;28;20816;-80
2023/12/31 01:55:09;;;;;;;9.50;8.03;;;5.20;78.00;;;;;;6306914;28;20875;-81
2023/12/31 01:58:13;;;;;;;8.17;7.33;;;5.10;78.40;;;;;;6304002;28;20331;-81
2023/12/31 02:01:17;;;;;;;9.50;7.53;;;5.10;78.40;;;;;;6306433;28;20641;-81
2023/12/31 02:04:21;;;;;;;8.67;7.87;;;5.00;78.40;;;;;;6300445;28;20248;-80
2023/12/31 02:07:24;;;;;;;6.77;6.17;;;5.00;78.50;;;;;;6300242;28;20633;-81
2023/12/31 02:10:29;;;;;;;8.23;6.87;;;5.00;78.60;;;;;;6309282;28;20229;-80
2023/12/31 02:13:34;;;;;;;8.30;6.83;;;4.90;78.70;;;;;;6304050;28;20237;-79
2023/12/31 02:16:38;;;;;;;8.80;7.27;;;4.90;78.90;;;;;;6304827;28;20431;-81
2023/12/31 02:19:41;;;;;;;7.83;6.80;;;4.90;79.00;;;;;;6313351;28;20229;-80
2023/12/31 02:22:45;;;;;;;8.70;7.00;;;4.80;79.00;;;;;;6312960;28;20315;-80
2023/12/31 02:26:01;;;;;;;8.13;7.33;;;4.80;79.20;;;;;;6296852;28;20236;-81
2023/12/31 02:29:04;;;;;;;8.33;7.50;;;4.70;79.20;;;;;;6296709;28;20229;-80
2023/12/31 02:32:07;;;;;;;8.90;7.77;;;4.70;79.30;;;;;;6301692;28;20241;-79
2023/12/31 02:35:11;;;;;;;17.60;8.90;;;4.70;79.30;;;;;;6303844;28;20270;-81
2023/12/31 02:38:14;;;;;;;8.33;7.53;;;4.70;79.70;;;;;;6299716;28;20372;-78
2023/12/31 02:41:18;;;;;;;8.30;7.50;;;4.70;79.80;;;;;;6300663;28;20898;-81
2023/12/31 02:44:21;;;;;;;8.80;7.90;;;4.70;79.70;;;;;;6297056;28;20281;-81
2023/12/31 02:47:24;;;;;;;12.80;8.30;;;4.70;80.10;;;;;;6306539;28;20236;-78
2023/12/31 02:50:28;;;;;;;7.93;6.87;;;4.60;80.00;;;;;;6313207;28;20803;-78
2023/12/31 02:53:31;;;;;;;9.33;8.40;;;4.60;80.00;;;;;;6308764;28;20235;-79
2023/12/31 02:56:41;;;;;;;9.20;7.40;;;4.50;80.10;;;;;;6312660;28;20231;-80
2023/12/31 02:59:44;;;;;;;10.70;8.20;;;4.50;80.10;;;;;;6304958;28;20241;-80
2023/12/31 03:02:48;;;;;;;9.57;8.43;;;4.50;80.50;;;;;;6297420;28;20233;-79
2023/12/31 03:05:51;;;;;;;8.90;7.60;;;4.50;80.50;;;;;;6303279;28;20863;-81
2023/12/31 03:08:58;;;;;;;8.67;7.23;;;4.50;80.60;;;;;;6296083;28;20304;-80
2023/12/31 03:12:03;;;;;;;9.30;7.47;;;4.40;80.50;;;;;;6304446;28;20232;-80
2023/12/31 03:15:10;;;;;;;7.83;7.13;;;4.40;80.50;;;;;;6292068;28;20240;-78
2023/12/31 03:18:13;;;;;;;9.13;7.63;;;4.40;80.50;;;;;;6302016;28;20236;-81
2023/12/31 03:21:17;;;;;;;8.40;6.60;;;4.40;80.50;;;;;;6301619;28;20231;-79
2023/12/31 03:24:20;;;;;;;6.90;6.40;;;4.40;80.50;;;;;;6303251;28;20245;-81
2023/12/31 03:27:25;;;;;;;8.27;7.27;;;4.30;80.60;;;;;;6298884;28;20229;-79
2023/12/31 03:30:28;;;;;;;8.57;6.93;;;4.30;80.60;;;;;;6298069;28;20240;-81
2023/12/31 03:33:31;;;;;;;7.77;7.07;;;4.30;80.90;;;;;;6293102;28;20249;-80
2023/12/31 03:36:35;;;;;;;7.63;6.93;;;4.30;80.80;;;;;;6291515;28;20245;-79
2023/12/31 03:39:38;;;;;;;7.80;6.97;;;4.30;80.90;;;;;;6309476;28;20231;-79
2023/12/31 03:42:43;;;;;;;9.73;6.80;;;4.30;80.90;;;;;;6297534;28;20837;-79
2023/12/31 03:45:46;;;;;;;8.10;7.30;;;4.20;80.90;;;;;;6302315;28;20627;-81
2023/12/31 03:48:50;;;;;;;8.13;7.10;;;4.20;81.10;;;;;;6295573;28;20264;-80
2023/12/31 03:51:53;;;;;;;7.80;7.00;;;4.20;81.10;;;;;;6301379;28;20233;-80
2023/12/31 03:54:56;;;;;;;9.77;6.40;;;4.20;81.20;;;;;;6303475;28;20734;-82
2023/12/31 03:58:01;;;;;;;7.80;7.03;;;4.20;81.20;;;;;;6303975;28;20228;-80
2023/12/31 04:01:05;;;;;;;9.50;8.00;;;4.20;81.20;;;;;;6295964;28;20236;-77
2023/12/31 04:04:08;;;;;;;10.27;6.63;;;4.20;81.10;;;;;;6308617;28;20723;-80
2023/12/31 04:07:11;;;;;;;7.10;6.40;;;4.20;81.20;;;;;;6294769;28;20229;-77
2023/12/31 04:10:14;;;;;;;8.07;7.03;;;4.20;81.10;;;;;;6296459;28;20232;-81
2023/12/31 04:13:19;;;;;;;7.13;6.63;;;4.10;81.10;;;;;;6299330;28;20229;-80
2023/12/31 04:16:22;;;;;;;7.63;6.77;;;4.10;81.20;;;;;;6301256;28;20320;-77
2023/12/31 04:19:26;;;;;;;9.63;7.23;;;4.10;81.30;;;;;;6309188;28;20510;-81
2023/12/31 04:22:29;;;;;;;10.47;7.30;;;4.00;81.50;;;;;;6302328;28;20304;-80
2023/12/31 04:25:32;;;;;;;10.83;7.63;;;4.00;81.60;;;;;;6299508;28;20237;-79
2023/12/31 04:28:37;;;;;;;11.50;7.10;;;4.00;81.70;;;;;;6298091;28;20305;-81
2023/12/31 04:31:44;;;;;;;8.20;7.33;;;4.00;81.80;;;;;;6302848;28;20318;-80
2023/12/31 04:34:47;;;;;;;10.70;6.73;;;4.00;81.90;;;;;;6300023;28;20249;-82
2023/12/31 04:37:50;;;;;;;7.43;6.70;;;4.00;82.00;;;;;;6303163;28;20232;-82
2023/12/31 04:40:53;;;;;;;6.53;6.07;;;3.90;81.90;;;;;;6312726;28;20621;-82
2023/12/31 04:43:58;;;;;;;10.40;7.40;;;3.90;81.70;;;;;;6313530;28;20237;-82
2023/12/31 04:47:01;;;;;;;7.97;7.23;;;3.90;81.90;;;;;;6308500;28;20313;-79
2023/12/31 04:50:05;;;;;;;8.87;7.17;;;3.90;81.90;;;;;;6303019;28;20260;-81
2023/12/31 04:53:08;;;;;;;7.97;7.27;;;4.00;82.00;;;;;;6312682;28;21032;-81
2023/12/31 04:56:19;;;;;;;7.70;6.53;;;4.00;82.00;;;;;;6310743;28;20233;-79
2023/12/31 04:59:23;;;;;;;8.90;7.73;;;4.00;82.00;;;;;;6310301;28;20233;-80
2023/12/31 05:02:27;;;;;;;8.13;7.33;;;4.10;82.00;;;;;;6314144;28;20332;-80
2023/12/31 05:05:30;;;;;;;7.10;6.50;;;4.10;82.10;;;;;;6309853;28;20233;-76
2023/12/31 05:08:33;;;;;;;8.20;7.50;;;4.10;81.70;;;;;;6308073;28;20311;-80
2023/12/31 05:11:36;;;;;;;11.00;7.40;;;4.10;81.70;;;;;;6308483;28;20225;-78
2023/12/31 05:14:41;;;;;;;7.87;7.00;;;4.20;81.70;;;;;;6305704;28;20312;-82
2023/12/31 05:17:44;;;;;;;10.03;7.73;;;4.20;81.70;;;;;;6309929;28;20302;-80
2023/12/31 05:20:47;;;;;;;8.30;7.60;;;4.20;81.50;;;;;;6301137;28;20649;-80
2023/12/31 05:23:50;;;;;;;8.30;7.60;;;4.30;81.30;;;;;;6304063;28;20348;-80
2023/12/31 05:26:53;;;;;;;8.20;6.67;;;4.30;81.40;;;;;;6302992;28;21181;-82
2023/12/31 05:29:58;;;;;;;7.57;6.87;;;4.40;81.20;;;;;;6307207;28;20244;-82
2023/12/31 05:33:01;;;;;;;7.63;6.93;;;4.30;81.20;;;;;;6301583;28;20245;-82
2023/12/31 05:36:06;;;;;;;10.10;7.00;;;4.30;81.10;;;;;;6303481;28;20586;-81
2023/12/31 05:39:09;;;;;;;7.30;6.73;;;4.20;81.30;;;;;;6304873;28;20290;-81
2023/12/31 05:42:13;;;;;;;9.83;7.57;;;4.20;81.40;;;;;;6299637;28;20236;-80
2023/12/31 05:45:19;;;;;;;8.73;7.00;;;4.30;81.30;;;;;;6300376;28;20252;-80
2023/12/31 05:48:22;;;;;;;6.77;6.17;;;4.30;81.20;;;;;;6304144;28;20399;-80
2023/12/31 05:51:26;;;;;;;9.83;6.23;;;4.30;81.20;;;;;;6304084;28;20917;-79
2023/12/31 05:54:29;;;;;;;9.37;6.80;;;4.30;81.20;;;;;;6308150;28;20233;-80
2023/12/31 05:57:32;;;;;;;8.10;6.87;;;4.30;81.30;;;;;;6297955;28;20259;-80
2023/12/31 06:00:36;;;;;;;7.30;6.70;;;4.40;81.10;;;;;;6295230;28;20248;-79
2023/12/31 06:03:39;;;;;;;13.60;7.83;;;4.40;81.20;;;;;;6300682;28;20229;-79
2023/12/31 06:06:43;;;;;;;7.30;6.63;;;4.40;80.80;;;;;;6300537;28;20255;-82
2023/12/31 06:09:46;;;;;;;7.43;6.33;;;4.30;81.00;;;;;;6299857;28;20297;-82
2023/12/31 06:12:50;;;;;;;6.80;5.67;;;4.30;80.90;;;;;;6302621;28;20947;-81
2023/12/31 06:15:54;;;;;;;8.27;6.23;;;4.40;80.80;;;;;;6299310;28;20320;-81
2023/12/31 06:18:57;;;;;;;6.67;6.10;;;4.40;80.50;;;;;;6309538;28;20232;-80
2023/12/31 06:22:01;;;;;;;6.60;6.10;;;4.40;80.50;;;;;;6306822;28;20243;-82
2023/12/31 06:25:04;;;;;;;7.20;6.50;;;4.40;80.60;;;;;;6313045;28;20325;-81
2023/12/31 06:28:08;;;;;;;7.40;6.50;;;4.40;80.70;;;;;;6301120;28;20283;-80
2023/12/31 06:31:12;;;;;;;8.93;6.13;;;4.40;80.60;;;;;;6309613;28;20280;-80
2023/12/31 06:34:16;;;;;;;8.17;6.13;;;4.40;80.70;;;;;;6305799;28;20311;-81
2023/12/31 06:37:20;;;;;;;7.43;6.70;;;4.50;80.70;;;;;;6298389;28;20282;-75
2023/12/31 06:40:23;;;;;;;6.73;6.17;;;4.40;80.50;;;;;;6308842;28;20390;-76
2023/12/31 06:43:26;;;;;;;6.87;6.37;;;4.40;80.50;;;;;;6298118;28;20814;-75
2023/12/31 06:46:31;;;;;;;6.80;6.07;;;4.40;80.60;;;;;;6298075;28;20320;-77
2023/12/31 06:49:34;;;;;;;6.67;6.17;;;4.40;80.70;;;;;;6301581;28;20839;-76
2023/12/31 06:52:37;;;;;;;6.57;5.97;;;4.40;80.60;;;;;;6298416;28;20236;-77
2023/12/31 06:55:41;;;;;;;7.20;6.50;;;4.50;80.50;;;;;;6296972;28;20646;-75
2023/12/31 06:58:44;;;;;;;7.10;5.73;;;4.50;80.30;;;;;;6300628;28;20250;-75
2023/12/31 07:01:49;;;;;;;9.17;6.20;;;4.50;80.30;;;;;;6310374;28;20739;-74
2023/12/31 07:04:52;;;;;;;7.53;7.03;;;4.60;80.20;;;;;;6306773;28;20233;-76
2023/12/31 07:07:55;;;;;;;7.30;6.67;;;4.60;80.10;;;;;;6306681;28;20249;-75
2023/12/31 07:10:58;;;;;;;6.30;5.67;;;4.60;80.10;;;;;;6298439;28;20761;-77
2023/12/31 07:14:01;;;;;;;6.83;6.03;;;4.60;80.20;;;;;;6301520;28;20232;-76
2023/12/31 07:17:06;;;;;;;9.23;6.23;;;4.70;80.00;;;;;;6300393;28;20233;-78
2023/12/31 07:20:10;;;;;;;6.90;6.30;;;4.70;80.00;;;;;;6301274;28;20228;-76
2023/12/31 07:23:14;;;;;;;8.13;6.17;;;4.70;79.90;;;;;;6301810;28;20221;-76
2023/12/31 07:26:25;;;;;;;7.77;5.40;;;4.70;79.80;;;;;;6298817;28;20237;-75
2023/12/31 07:29:28;;;;;;;6.17;5.70;;;4.70;79.70;;;;;;6306595;28;20707;-77
2023/12/31 07:32:32;;;;;;;6.73;6.10;;;4.80;79.70;;;;;;6302110;28;20715;-76
2023/12/31 07:35:36;;;;;;;6.00;5.60;;;4.90;79.10;;;;;;6295402;28;20909;-77
2023/12/31 07:38:39;;;;;;;6.17;5.70;;;4.90;79.10;;;;;;6302075;28;20324;-78
2023/12/31 07:41:42;;;;;;;7.07;6.13;;;4.90;79.00;;;;;;6308089;28;20235;-76
2023/12/31 07:44:45;;;;;;;5.97;5.57;;;4.90;79.00;;;;;;6303249;28;20339;-78
2023/12/31 07:47:50;;;;;;;5.90;5.50;;;5.00;78.90;;;;;;6304794;28;20864;-76
2023/12/31 07:50:53;;;;;;;6.13;5.63;;;5.00;78.90;;;;;;6299179;28;20374;-78
2023/12/31 07:53:56;;;;;;;6.13;5.37;;;5.00;78.70;;;;;;6296904;28;20229;-76
2023/12/31 07:57:00;;;;;;;6.20;5.63;;;5.00;78.50;;;;;;6308972;28;20243;-77
2023/12/31 08:00:05;;;;;;;10.37;5.77;;;5.10;78.60;;;;;;6307357;28;20236;-77
2023/12/31 08:03:09;;;;;;;6.70;6.10;;;5.10;78.40;;;;;;6298873;28;20242;-78
2023/12/31 08:06:13;;;;;;;5.77;5.30;;;5.10;78.40;;;;;;6309161;28;20239;-74
2023/12/31 08:09:16;;;;;;;6.43;5.90;;;5.20;78.40;;;;;;6303663;28;20225;-76
2023/12/31 08:12:19;;;;;;;6.70;6.23;;;5.20;78.20;;;;;;6302457;28;20248;-76
2023/12/31 08:15:22;;;;;;;6.23;5.33;;;5.20;78.10;;;;;;6300555;28;20261;-77
2023/12/31 08:18:27;;;;;;;6.23;5.63;;;5.30;78.10;;;;;;6312361;28;20252;-75
2023/12/31 08:21:30;;;;;;;6.53;5.77;;;5.30;77.90;;;;;;6300871;28;20231;-76
2023/12/31 08:24:33;;;;;;;6.20;5.60;;;5.30;77.90;;;;;;6306769;28;20367;-77
2023/12/31 08:27:36;;;;;;;6.37;5.30;;;5.30;77.70;;;;;;6314841;28;20745;-76
2023/12/31 08:30:39;;;;;;;5.50;5.17;;;5.40;77.70;;;;;;6313284;28;20381;-78
2023/12/31 08:33:44;;;;;;;5.93;5.37;;;5.50;77.50;;;;;;6302864;28;20751;-73
2023/12/31 08:36:47;;;;;;;6.20;5.73;;;5.50;77.20;;;;;;6304868;28;20229;-76
2023/12/31 08:39:50;;;;;;;5.80;5.40;;;5.50;77.20;;;;;;6311426;28;20397;-77
2023/12/31 08:42:53;;;;;;;6.03;5.57;;;5.60;76.90;;;;;;6309410;28;20239;-77
2023/12/31 08:45:56;;;;;;;6.40;5.53;;;5.60;76.60;;;;;;6314542;28;20752;-77
2023/12/31 08:49:01;;;;;;;5.57;5.27;;;5.70;76.50;;;;;;6317961;28;20369;-76
2023/12/31 08:52:05;;;;;;;5.57;5.27;;;5.70;76.70;;;;;;6310417;28;20255;-76
2023/12/31 08:55:08;;;;;;;5.83;5.43;;;5.70;76.50;;;;;;6315748;28;20257;-76
2023/12/31 08:58:12;;;;;;;6.03;5.53;;;5.80;76.60;;;;;;6311410;28;20239;-76
2023/12/31 09:01:15;;;;;;;6.43;6.13;;;5.90;76.20;;;;;;6317482;28;20365;-76
2023/12/31 09:04:19;;;;;;;5.53;5.33;;;6.00;76.00;;;;;;6309335;28;20240;-77
2023/12/31 09:07:24;;;;;;;5.47;5.17;;;6.10;75.90;;;;;;6311327;28;20228;-75
2023/12/31 09:10:27;;;;;;;6.57;6.07;;;6.10;75.90;;;;;;6305062;28;20908;-77
2023/12/31 09:13:31;;;;;;;6.23;5.73;;;6.20;75.00;;;;;;6306781;28;20236;-77
2023/12/31 09:16:34;;;;;;;6.57;5.97;;;6.30;74.80;;;;;;6315361;28;20244;-77
2023/12/31 09:19:40;;;;;;;6.20;5.70;;;6.20;74.60;;;;;;6316126;28;20336;-76
2023/12/31 09:22:43;;;;;;;5.87;5.30;;;6.30;74.20;;;;;;6310221;28;20232;-77
2023/12/31 09:25:51;;;;;;;6.20;5.70;;;6.40;74.00;;;;;;6311655;28;20237;-79
2023/12/31 09:28:54;;;;;;;6.63;5.97;;;6.40;73.50;;;;;;6299603;28;20281;-78
2023/12/31 09:31:58;;;;;;;6.77;5.83;;;6.50;73.40;;;;;;6283313;28;20241;-77
2023/12/31 09:35:02;;;;;;;7.80;6.17;;;6.50;73.40;;;;;;6303995;28;20244;-76
2023/12/31 09:38:05;;;;;;;5.83;5.33;;;6.50;73.20;;;;;;6302851;28;20312;-78
2023/12/31 09:41:09;;;;;;;7.07;6.23;;;6.60;73.20;;;;;;6311479;28;20225;-76
2023/12/31 09:44:14;;;;;;;5.93;5.50;;;6.60;72.80;;;;;;6308225;28;20728;-76
2023/12/31 09:47:17;;;;;;;6.00;5.60;;;6.60;72.90;;;;;;6310935;28;20225;-77
2023/12/31 09:50:24;;;;;;;7.43;6.67;;;6.60;72.80;;;;;;6300789;28;20243;-77
2023/12/31 09:53:34;;;;;;;6.80;6.07;;;6.60;72.60;;;;;;6312146;28;20275;-77
2023/12/31 09:56:38;;;;;;;7.13;6.17;;;6.60;72.80;;;;;;6307281;28;20895;-77
2023/12/31 09:59:46;;;;;;;6.20;5.90;;;6.60;72.70;;;;;;6301086;28;20248;-75
2023/12/31 10:02:52;;;;;;;6.20;5.70;;;6.60;72.80;;;;;;6310078;28;20592;-77
2023/12/31 10:05:57;;;;;;;5.97;5.63;;;6.60;72.80;;;;;;6299581;28;20244;-76
2023/12/31 10:09:04;;;;;;;5.77;5.47;;;6.70;72.80;;;;;;6302327;28;20293;-76
2023/12/31 10:12:08;;;;;;;7.63;6.10;;;6.70;72.90;;;;;;6302503;28;20236;-78
2023/12/31 10:15:11;;;;;;;6.17;5.70;;;6.70;73.00;;;;;;6311946;28;20612;-78
2023/12/31 10:18:14;;;;;;;6.13;5.53;;;6.70;72.80;;;;;;6315637;28;20716;-76
2023/12/31 10:21:19;;;;;;;6.20;5.70;;;6.70;72.80;;;;;;6307476;28;20637;-77
2023/12/31 10:24:27;;;;;;;5.70;5.40;;;6.80;72.70;;;;;;6303478;28;20267;-78
2023/12/31 10:27:32;;;;;;;6.30;5.70;;;6.80;72.50;;;;;;6301461;28;20237;-76
2023/12/31 10:30:38;;;;;;;5.70;5.30;;;6.80;72.70;;;;;;6300190;28;20275;-76
2023/12/31 10:33:42;;;;;;;5.57;5.27;;;6.90;72.70;;;;;;6307897;28;20243;-77
2023/12/31 10:36:48;;;;;;;5.97;5.47;;;6.90;72.60;;;;;;6296172;28;20243;-77
2023/12/31 10:39:51;;;;;;;5.57;5.17;;;7.00;72.40;;;;;;6292651;28;20237;-77
2023/12/31 10:42:56;;;;;;;5.50;5.30;;;7.00;72.30;;;;;;6310224;28;20297;-76
2023/12/31 10:46:01;;;;;;;5.40;5.10;;;7.00;72.30;;;;;;6302872;28;20931;-76
2023/12/31 10:49:05;;;;;;;5.77;5.33;;;7.00;72.00;;;;;;6309009;28;20305;-77
2023/12/31 10:52:14;;;;;;;6.67;5.50;;;7.00;72.00;;;;;;6308003;28;20240;-78
2023/12/31 10:55:18;;;;;;;5.57;5.17;;;7.00;72.00;;;;;;6306574;28;20240;-77
2023/12/31 10:58:22;;;;;;;5.13;4.83;;;7.00;72.00;;;;;;6302963;28;20240;-77
2023/12/31 11:01:26;;;;;;;5.17;4.77;;;7.00;72.00;;;;;;6301930;28;20240;-77
2023/12/31 11:04:31;;;;;;;6.40;5.83;;;7.20;71.90;;;;;;6299658;28;20236;-77
2023/12/31 11:07:36;;;;;;;5.60;5.20;;;7.20;71.60;;;;;;6286209;28;20237;-76
2023/12/31 11:10:40;;;;;;;6.00;5.40;;;7.30;71.40;;;;;;6306899;28;20229;-75
2023/12/31 11:13:50;;;;;;;4.80;4.60;;;7.40;71.20;;;;;;6305790;28;20321;-76
2023/12/31 11:17:03;;;;;;;5.87;5.50;;;7.30;71.50;;;;;;6302489;28;20658;-77
2023/12/31 11:20:32;;;;;;;5.20;5.00;;;7.40;71.40;;;;;;6302958;28;20275;-77
2023/12/31 11:23:43;;;;;;;8.87;5.43;;;7.40;71.10;;;;;;6297032;28;20311;-77
2023/12/31 11:27:03;;;;;;;6.00;5.43;;;7.50;71.20;;;;;;6296682;28;20726;-76
2023/12/31 11:30:07;;;;;;;6.13;5.50;;;7.50;71.00;;;;;;6295846;28;20221;-75
2023/12/31 11:33:11;;;;;;;6.33;5.57;;;7.50;70.90;;;;;;6297522;28;20283;-78
2023/12/31 11:36:16;;;;;;;5.33;5.03;;;7.50;70.70;;;;;;6307303;28;20229;-78
2023/12/31 11:39:23;;;;;;;5.60;5.20;;;7.60;70.60;;;;;;6304983;28;20252;-77
2023/12/31 11:42:26;;;;;;;6.13;5.73;;;7.70;70.10;;;;;;6296969;28;20870;-76
2023/12/31 11:45:43;;;;;;;6.90;6.30;;;7.70;70.00;;;;;;6300147;28;20232;-76
2023/12/31 11:48:48;;;;;;;6.50;5.87;;;7.80;69.80;;;;;;6308090;28;20846;-76
2023/12/31 11:51:55;;;;;;;6.60;6.10;;;7.80;69.90;;;;;;6292843;28;20228;-76
2023/12/31 11:55:01;;;;;;;6.53;6.03;;;7.80;70.00;;;;;;6298064;28;20744;-76
2023/12/31 11:58:08;;;;;;;6.10;5.30;;;7.80;69.80;;;;;;6305269;28;20245;-77
2023/12/31 12:01:11;;;;;;;5.50;5.10;;;7.70;70.20;;;;;;6292495;28;20237;-76
2023/12/31 12:04:14;;;;;;;5.90;5.50;;;7.70;69.70;;;;;;6297965;28;20332;-77
2023/12/31 12:07:17;;;;;;;6.10;5.70;;;7.80;69.80;;;;;;6304047;28;20225;-77
2023/12/31 12:10:22;;;;;;;5.40;5.00;;;7.70;70.10;;;;;;6304931;28;20225;-76
2023/12/31 12:13:26;;;;;;;5.93;5.53;;;7.80;70.10;;;;;;6301393;28;20236;-76
2023/12/31 12:16:29;;;;;;;5.50;5.20;;;7.80;70.20;;;;;;6309921;28;20355;-75
2023/12/31 12:19:34;;;;;;;6.17;5.67;;;7.80;70.10;;;;;;6307052;28;20247;-76
2023/12/31 12:22:38;;;;;;;6.57;5.97;;;7.80;70.00;;;;;;6297551;28;20243;-78
2023/12/31 12:25:44;;;;;;;5.47;5.13;;;7.90;69.50;;;;;;6292261;28;20237;-77
2023/12/31 12:28:48;;;;;;;5.93;5.53;;;7.80;69.80;;;;;;6297327;28;20229;-78
2023/12/31 12:31:51;;;;;;;5.73;5.37;;;7.90;69.60;;;;;;6293493;28;20243;-76
2023/12/31 12:34:59;;;;;;;5.87;5.40;;;7.90;69.70;;;;;;6296527;28;20251;-76
2023/12/31 12:38:02;;;;;;;5.27;4.93;;;7.80;69.70;;;;;;6287568;28;20229;-76
2023/12/31 12:41:08;;;;;;;5.87;5.47;;;7.90;69.70;;;;;;6301535;28;20328;-77
2023/12/31 12:44:13;;;;;;;6.27;5.67;;;8.00;69.40;;;;;;6297510;28;20751;-75
2023/12/31 12:47:20;;;;;;;5.73;5.33;;;7.90;69.50;;;;;;6290483;28;20374;-80
2023/12/31 12:50:26;;;;;;;5.60;5.13;;;8.00;69.40;;;;;;6302180;28;20606;-76
2023/12/31 12:53:29;;;;;;;5.57;5.23;;;8.00;69.30;;;;;;6306153;28;20312;-77
2023/12/31 12:56:34;;;;;;;5.63;5.23;;;8.00;69.40;;;;;;6303795;28;20316;-76
2023/12/31 12:59:37;;;;;;;6.27;5.77;;;7.80;69.70;;;;;;6300115;28;20260;-77
2023/12/31 13:02:40;;;;;;;5.57;5.17;;;7.80;69.60;;;;;;6308738;28;20240;-77
2023/12/31 13:05:44;;;;;;;5.77;5.40;;;7.90;69.60;;;;;;6308139;28;20739;-76
2023/12/31 13:08:47;;;;;;;5.77;5.37;;;7.80;69.70;;;;;;6301883;28;20254;-76
2023/12/31 13:11:52;;;;;;;6.77;6.07;;;7.80;69.80;;;;;;6310000;28;20232;-77
2023/12/31 13:14:55;;;;;;;5.43;5.03;;;7.80;70.00;;;;;;6301763;28;20229;-77
2023/12/31 13:17:58;;;;;;;5.90;5.57;;;7.80;70.20;;;;;;6307432;28;20333;-76
2023/12/31 13:21:02;;;;;;;6.10;5.70;;;7.80;70.20;;;;;;6308998;28;20225;-75
2023/12/31 13:24:06;;;;;;;6.40;5.87;;;7.70;70.30;;;;;;6301576;28;20772;-75
2023/12/31 13:27:12;;;;;;;5.83;5.53;;;7.70;70.40;;;;;;6308548;28;20736;-75
2023/12/31 13:30:15;;;;;;;6.93;5.70;;;7.80;70.20;;;;;;6304712;28;20232;-77
2023/12/31 13:33:21;;;;;;;6.00;5.60;;;7.80;70.40;;;;;;6304137;28;21081;-76
2023/12/31 13:36:24;;;;;;;6.50;5.90;;;7.80;70.30;;;;;;6303395;28;20725;-77
2023/12/31 13:39:27;;;;;;;6.93;5.80;;;7.80;70.20;;;;;;6301735;28;20310;-78
2023/12/31 13:42:32;;;;;;;5.50;5.20;;;7.80;70.20;;;;;;6305906;28;20774;-77
2023/12/31 13:45:35;;;;;;;6.20;5.90;;;7.70;70.30;;;;;;6303924;28;20232;-77
2023/12/31 13:48:38;;;;;;;5.73;5.40;;;7.60;70.40;;;;;;6310075;28;20236;-79
2023/12/31 13:51:42;;;;;;;5.87;5.57;;;7.70;70.30;;;;;;6293836;28;20363;-76
2023/12/31 13:54:45;;;;;;;5.80;5.50;;;7.60;70.30;;;;;;6309334;28;20221;-76
2023/12/31 13:57:49;;;;;;;6.47;5.97;;;7.60;70.40;;;;;;6302462;28;20719;-77
2023/12/31 14:00:53;;;;;;;5.77;5.47;;;7.60;70.90;;;;;;6301511;28;20672;-76
2023/12/31 14:03:56;;;;;;;6.97;6.37;;;7.60;70.60;;;;;;6289220;28;20237;-76
2023/12/31 14:06:59;;;;;;;5.83;5.33;;;7.60;70.50;;;;;;6295673;28;20313;-74
2023/12/31 14:10:03;;;;;;;6.03;5.67;;;7.60;70.50;;;;;;6309454;28;20267;-75
2023/12/31 14:13:08;;;;;;;6.30;5.90;;;7.60;70.70;;;;;;6306566;28;20622;-76
2023/12/31 14:16:11;;;;;;;6.50;6.10;;;7.50;70.90;;;;;;6298213;28;20324;-74
2023/12/31 14:19:14;;;;;;;6.47;5.90;;;7.50;71.00;;;;;;6313562;28;20255;-75
2023/12/31 14:22:31;;;;;;;6.40;6.00;;;7.50;71.10;;;;;;6303563;28;20263;-77
2023/12/31 14:25:34;;;;;;;7.00;6.37;;;7.40;71.10;;;;;;6302767;28;20240;-75
2023/12/31 14:28:39;;;;;;;6.03;5.50;;;7.40;71.20;;;;;;6307321;28;20975;-76
2023/12/31 14:31:42;;;;;;;5.93;5.57;;;7.50;71.10;;;;;;6303134;28;20256;-77
2023/12/31 14:34:45;;;;;;;5.93;5.63;;;7.50;70.70;;;;;;6295637;28;20324;-76
2023/12/31 14:37:49;;;;;;;5.33;5.03;;;7.50;70.60;;;;;;6300465;28;20231;-75
2023/12/31 14:40:52;;;;;;;6.70;5.97;;;7.40;70.70;;;;;;6304101;28;20736;-78
2023/12/31 14:43:56;;;;;;;6.20;5.80;;;7.40;70.90;;;;;;6300197;28;20314;-78
2023/12/31 14:47:00;;;;;;;6.57;6.10;;;7.40;70.70;;;;;;6295797;28;20640;-76
2023/12/31 14:50:03;;;;;;;6.00;5.60;;;7.40;70.70;;;;;;6302053;28;20961;-77
2023/12/31 14:53:07;;;;;;;6.60;6.10;;;7.40;70.90;;;;;;6302498;28;20229;-78
2023/12/31 14:56:10;;;;;;;6.77;6.07;;;7.20;71.00;;;;;;6304190;28;20853;-76
2023/12/31 14:59:15;;;;;;;7.43;6.87;;;7.30;70.90;;;;;;6310792;28;20247;-77
2023/12/31 15:02:21;;;;;;;6.50;6.10;;;7.30;71.00;;;;;;6301211;28;20669;-75
2023/12/31 15:05:24;;;;;;;6.60;6.03;;;7.20;71.10;;;;;;6295870;28;20241;-76
2023/12/31 15:08:27;;;;;;;6.47;5.97;;;7.20;71.40;;;;;;6293031;28;20358;-76
2023/12/31 15:11:31;;;;;;;6.50;6.10;;;7.20;71.50;;;;;;6307257;28;20232;-77
2023/12/31 15:14:40;;;;;;;8.80;6.50;;;7.20;71.40;;;;;;6294276;28;20232;-76
2023/12/31 15:17:43;;;;;;;6.70;6.20;;;7.20;71.40;;;;;;6301644;28;20436;-76
2023/12/31 15:20:47;;;;;;;6.60;6.10;;;7.20;71.40;;;;;;6308216;28;20752;-76
2023/12/31 15:23:50;;;;;;;7.40;6.80;;;7.20;71.50;;;;;;6301425;28;20635;-76
2023/12/31 15:26:53;;;;;;;7.70;6.90;;;7.20;71.30;;;;;;6284001;28;20252;-76
2023/12/31 15:29:57;;;;;;;7.80;7.10;;;7.20;71.40;;;;;;6295256;28;20248;-75
2023/12/31 15:33:00;;;;;;;7.27;6.80;;;7.20;71.30;;;;;;6294252;28;20228;-78
2023/12/31 15:36:05;;;;;;;7.87;7.17;;;7.20;71.20;;;;;;6304273;28;20233;-78
2023/12/31 15:39:14;;;;;;;7.33;6.70;;;7.20;71.40;;;;;;6306437;28;20769;-76
2023/12/31 15:42:18;;;;;;;7.67;7.07;;;7.20;71.40;;;;;;6301499;28;20271;-75
2023/12/31 15:45:23;;;;;;;7.80;7.20;;;7.20;71.60;;;;;;6305235;28;20332;-76
2023/12/31 15:48:26;;;;;;;9.10;8.23;;;7.20;72.10;;;;;;6306121;28;20738;-77
2023/12/31 15:51:31;;;;;;;8.87;8.07;;;7.20;72.60;;;;;;6305512;28;20243;-75
2023/12/31 15:54:34;;;;;;;9.23;8.43;;;7.20;72.80;;;;;;6309831;28;20241;-77
2023/12/31 15:57:37;;;;;;;10.20;8.90;;;7.20;73.00;;;;;;6305307;28;20254;-77
2023/12/31 16:00:42;;;;;;;9.13;8.33;;;7.00;73.60;;;;;;6303439;28;21361;-76
2023/12/31 16:03:47;;;;;;;10.23;9.33;;;7.00;73.60;;;;;;6302512;28;20247;-75
2023/12/31 16:06:50;;;;;;;11.10;10.10;;;7.00;73.50;;;;;;6299565;28;20225;-77
2023/12/31 16:09:53;;;;;;;11.07;10.20;;;7.00;73.70;;;;;;6305538;28;20304;-77